createdAt,value
2019-02-08T00:02:22.473Z,90.80
2019-02-08T00:04:53.537Z,81.37
2019-02-08T00:07:24.274Z,77.97
2019-02-08T00:09:55.038Z,89.52
2019-02-08T00:12:25.841Z,91.67
2019-02-08T00:14:56.611Z,84.13
2019-02-08T00:17:27.353Z,88.80
2019-02-08T00:19:58.217Z,82.65
2019-02-08T00:22:28.954Z,79.75
2019-02-08T00:24:59.706Z,74.50
2019-02-08T00:27:30.462Z,70.30
2019-02-08T00:30:01.257Z,62.27
2019-02-08T00:32:31.971Z,60.58
2019-02-08T00:35:02.738Z,63.10
2019-02-08T00:37:34.994Z,69.32
2019-02-08T00:40:12.684Z,61.80
2019-02-08T00:42:43.419Z,62.48
2019-02-08T00:45:18.219Z,63.17
2019-02-08T00:47:48.954Z,67.72
2019-02-08T00:50:24.925Z,65.70
2019-02-08T00:52:55.655Z,64.85
2019-02-08T00:55:27.069Z,63.33
2019-02-08T00:57:58.111Z,62.08
2019-02-08T01:00:29.958Z,61.60
2019-02-08T01:03:00.693Z,61.45
2019-02-08T01:05:31.499Z,61.70
2019-02-08T01:08:02.314Z,60.50
2019-02-08T01:10:33.849Z,67.82
2019-02-08T01:13:04.763Z,70.83
2019-02-08T01:15:35.529Z,79.87
2019-02-08T01:18:06.269Z,88.20
2019-02-08T01:20:37.099Z,132.37
2019-02-08T01:23:07.845Z,118.42
2019-02-08T01:25:38.554Z,102.02
2019-02-08T01:28:09.240Z,86.30
2019-02-08T01:30:40.010Z,74.53
2019-02-08T01:33:10.677Z,71.20
2019-02-08T01:35:41.368Z,75.05
2019-02-08T01:38:12.029Z,92.57
2019-02-08T01:40:44.242Z,81.95
2019-02-08T01:43:15.178Z,90.03
2019-02-08T01:45:45.942Z,79.62
2019-02-08T01:48:16.601Z,76.37
2019-02-08T01:50:47.374Z,72.58
2019-02-08T01:53:18.126Z,67.42
2019-02-08T01:55:49.098Z,68.07
2019-02-08T01:58:19.762Z,68.75
2019-02-08T02:00:50.525Z,66.87
2019-02-08T02:03:21.354Z,67.50
2019-02-08T02:05:52.058Z,70.45
2019-02-08T02:08:22.778Z,68.55
2019-02-08T02:10:53.473Z,64.40
2019-02-08T02:13:24.145Z,71.77
2019-02-08T02:15:54.836Z,72.82
2019-02-08T02:18:25.649Z,74.67
2019-02-08T02:20:56.410Z,77.35
2019-02-08T02:23:27.076Z,82.22
2019-02-08T02:25:58.735Z,87.92
2019-02-08T02:28:29.468Z,89.28
2019-02-08T02:31:00.170Z,94.13
2019-02-08T02:33:30.830Z,85.10
2019-02-08T02:36:01.519Z,86.40
2019-02-08T02:38:32.255Z,87.78
2019-02-08T02:41:02.943Z,78.78
2019-02-08T02:43:33.613Z,71.37
2019-02-08T02:46:04.282Z,71.35
2019-02-08T02:48:34.939Z,71.20
2019-02-08T02:51:05.635Z,67.62
2019-02-08T02:53:36.295Z,72.75
2019-02-08T02:56:07.916Z,73.72
2019-02-08T02:58:38.579Z,73.25
2019-02-08T03:01:09.368Z,79.07
2019-02-08T03:03:40.084Z,75.80
2019-02-08T03:06:10.783Z,77.85
2019-02-08T03:08:41.446Z,91.10
2019-02-08T03:11:12.194Z,91.37
2019-02-08T03:13:42.863Z,108.92
2019-02-08T03:16:13.556Z,98.82
2019-02-08T03:18:44.291Z,101.25
2019-02-08T03:21:14.984Z,97.47
2019-02-08T03:23:45.700Z,80.92
2019-02-08T03:26:16.429Z,81.05
2019-02-08T03:28:47.095Z,80.72
2019-02-08T03:31:17.783Z,82.33
2019-02-08T03:33:48.515Z,81.25
2019-02-08T03:36:19.345Z,84.70
2019-02-08T03:38:50.010Z,98.80
2019-02-08T03:41:20.710Z,90.83
2019-02-08T03:43:51.367Z,93.87
2019-02-08T03:46:22.242Z,104.75
2019-02-08T03:48:52.978Z,151.42
2019-02-08T03:51:23.682Z,111.52
2019-02-08T03:53:54.424Z,99.13
2019-02-08T03:56:26.114Z,111.28
2019-02-08T03:58:56.786Z,109.37
2019-02-08T04:01:29.002Z,98.27
2019-02-08T04:04:14.598Z,92.85
2019-02-08T04:06:46.357Z,75.33
2019-02-08T04:09:17.095Z,78.97
2019-02-08T04:11:47.868Z,75.97
2019-02-08T04:14:18.589Z,70.60
2019-02-08T04:16:49.311Z,70.55
2019-02-08T04:19:20.009Z,65.10
2019-02-08T04:21:50.777Z,64.85
2019-02-08T04:24:29.524Z,63.28
2019-02-08T04:26:55.435Z,60.30
2019-02-08T04:29:26.173Z,59.20
2019-02-08T04:31:56.879Z,57.38
2019-02-08T04:34:27.615Z,66.03
2019-02-08T04:36:58.307Z,74.67
2019-02-08T04:39:30.038Z,86.87
2019-02-08T04:42:00.742Z,75.30
2019-02-08T04:44:31.487Z,72.60
2019-02-08T04:47:02.185Z,81.80
2019-02-08T04:49:32.852Z,79.10
2019-02-08T04:52:03.572Z,57.95
2019-02-08T04:54:38.456Z,52.17
2019-02-08T04:57:07.652Z,58.90
2019-02-08T04:59:38.461Z,54.15
2019-02-08T05:02:09.238Z,59.27
2019-02-08T05:04:39.908Z,77.53
2019-02-08T05:07:10.593Z,70.87
2019-02-08T05:09:42.530Z,75.32
2019-02-08T05:12:13.437Z,79.30
2019-02-08T05:14:45.615Z,82.55
2019-02-08T05:17:17.808Z,79.97
2019-02-08T05:19:49.982Z,67.85
2019-02-08T05:22:22.321Z,68.90
2019-02-08T05:24:52.990Z,67.12
2019-02-08T05:27:23.758Z,65.15
2019-02-08T05:29:54.415Z,76.00
2019-02-08T05:32:25.210Z,89.05
2019-02-08T05:34:56.017Z,88.70
2019-02-08T05:37:31.004Z,90.80
2019-02-08T05:40:01.652Z,76.55
2019-02-08T05:42:32.328Z,63.85
2019-02-08T05:45:03.054Z,64.05
2019-02-08T05:47:33.763Z,70.97
2019-02-08T05:50:09.133Z,70.40
2019-02-08T05:52:39.816Z,67.80
2019-02-08T05:55:13.202Z,71.50
2019-02-08T05:57:44.274Z,67.15
2019-02-08T06:00:23.685Z,65.72
2019-02-08T06:02:54.451Z,97.70
2019-02-08T06:05:25.278Z,67.82
2019-02-08T06:07:55.953Z,65.20
2019-02-08T06:10:26.614Z,62.17
2019-02-08T06:12:57.291Z,65.80
2019-02-08T06:15:27.952Z,65.47
2019-02-08T06:17:58.702Z,81.87
2019-02-08T06:20:29.361Z,93.22
2019-02-08T06:23:00.046Z,99.90
2019-02-08T06:25:30.706Z,100.47
2019-02-08T06:28:01.465Z,98.20
2019-02-08T06:30:32.130Z,100.42
2019-02-08T06:33:02.888Z,103.58
2019-02-08T06:35:33.766Z,97.17
2019-02-08T06:38:05.258Z,95.75
2019-02-08T06:40:44.582Z,102.40
2019-02-08T06:43:15.356Z,115.37
2019-02-08T06:45:46.026Z,119.82
2019-02-08T06:48:16.714Z,106.07
2019-02-08T06:50:47.370Z,93.10
2019-02-08T06:53:18.049Z,96.87
2019-02-08T06:55:53.655Z,98.92
2019-02-08T06:58:25.453Z,104.10
2019-02-08T07:01:14.370Z,98.05
2019-02-08T07:03:49.942Z,91.05
2019-02-08T07:06:25.097Z,92.33
2019-02-08T07:09:03.484Z,76.75
2019-02-08T07:11:36.318Z,74.12
2019-02-08T07:14:11.729Z,68.52
2019-02-08T07:16:44.029Z,75.32
2019-02-08T07:19:16.353Z,77.80
2019-02-08T07:21:50.177Z,67.12
2019-02-08T07:24:22.496Z,72.60
2019-02-08T07:26:54.790Z,71.55
2019-02-08T07:29:37.862Z,69.37
2019-02-08T07:32:25.522Z,65.87
2019-02-08T07:34:57.848Z,76.30
2019-02-08T07:37:32.923Z,74.00
2019-02-08T07:40:22.482Z,81.37
2019-02-08T07:43:06.357Z,79.55
2019-02-08T07:45:40.421Z,87.27
2019-02-08T07:48:18.699Z,102.22
2019-02-08T07:50:51.058Z,96.65
2019-02-08T07:53:39.622Z,92.47
2019-02-08T07:56:23.759Z,496.55
2019-02-08T07:58:56.147Z,88.25
2019-02-08T08:01:28.586Z,219.20
2019-02-08T08:04:18.899Z,99.40
2019-02-08T08:06:51.235Z,106.30
2019-02-08T08:09:29.474Z,99.80
2019-02-08T08:12:16.766Z,94.35
2019-02-08T08:14:53.147Z,108.78
2019-02-08T08:17:44.669Z,99.65
2019-02-08T08:20:24.879Z,77.62
2019-02-08T08:23:13.564Z,88.62
2019-02-08T08:26:03.919Z,74.62
2019-02-08T08:28:36.286Z,68.10
2019-02-08T08:31:08.582Z,83.65
2019-02-08T08:33:45.322Z,78.92
2019-02-08T08:36:25.041Z,72.90
2019-02-08T08:39:30.811Z,102.00
2019-02-08T08:42:24.165Z,67.00
2019-02-08T08:45:00.874Z,66.55
2019-02-08T08:48:03.558Z,67.42
2019-02-08T08:50:46.102Z,63.95
2019-02-08T08:53:29.047Z,67.62
2019-02-08T08:56:22.614Z,62.93
2019-02-08T08:59:19.909Z,60.05
2019-02-08T09:02:01.190Z,60.55
2019-02-08T09:04:54.873Z,63.87
2019-02-08T09:07:37.858Z,60.20
2019-02-08T09:10:17.856Z,57.30
2019-02-08T09:13:14.977Z,60.55
2019-02-08T09:16:06.590Z,63.23
2019-02-08T09:19:12.208Z,64.82
2019-02-08T09:22:01.166Z,61.92
2019-02-08T09:24:40.593Z,63.68
2019-02-08T09:27:17.511Z,66.05
2019-02-08T09:29:57.809Z,55.98
2019-02-08T09:32:34.528Z,64.40
2019-02-08T09:35:25.294Z,62.75
2019-02-08T09:38:22.711Z,61.60
2019-02-08T09:41:19.123Z,61.48
2019-02-08T09:44:17.355Z,60.65
2019-02-08T09:47:16.997Z,63.58
2019-02-08T09:50:00.035Z,59.42
2019-02-08T09:52:42.378Z,62.38
2019-02-08T09:55:44.959Z,62.93
2019-02-08T09:58:52.369Z,62.13
2019-02-08T10:02:00.744Z,61.65
2019-02-08T10:05:00.499Z,62.27
2019-02-08T10:08:09.279Z,63.58
2019-02-08T10:10:44.574Z,61.30
2019-02-08T10:13:27.350Z,63.15
2019-02-08T10:16:17.026Z,61.92
2019-02-08T10:18:56.891Z,61.33
2019-02-08T10:21:51.797Z,61.20
2019-02-08T10:24:37.374Z,65.78
2019-02-08T10:27:16.510Z,68.85
2019-02-08T10:30:25.632Z,69.87
2019-02-08T10:33:25.359Z,70.28
2019-02-08T10:36:20.634Z,68.62
2019-02-08T10:39:09.409Z,68.30
2019-02-08T10:42:16.637Z,69.25
2019-02-08T10:45:09.286Z,67.53
2019-02-08T10:47:55.031Z,67.03
2019-02-08T10:50:34.658Z,81.92
2019-02-08T10:53:26.317Z,74.10
2019-02-08T10:56:22.714Z,67.08
2019-02-08T10:59:30.938Z,68.30
2019-02-08T11:02:27.979Z,68.07
2019-02-08T11:05:30.431Z,63.92
2019-02-08T11:08:38.215Z,64.05
2019-02-08T11:11:27.406Z,60.75
2019-02-08T11:14:02.956Z,54.70
2019-02-08T11:16:45.928Z,58.52
2019-02-08T11:19:19.807Z,59.85
2019-02-08T11:21:50.639Z,60.92
2019-02-08T11:24:21.793Z,56.75
2019-02-08T11:26:52.686Z,54.23
2019-02-08T11:29:23.333Z,56.00
2019-02-08T11:31:55.311Z,51.68
2019-02-08T11:34:25.961Z,46.92
2019-02-08T11:36:56.713Z,45.33
2019-02-08T11:39:27.601Z,48.23
2019-02-08T11:41:58.354Z,46.02
2019-02-08T11:44:29.001Z,47.38
2019-02-08T11:46:59.682Z,46.00
2019-02-08T11:49:30.321Z,45.33
2019-02-08T11:52:01.001Z,46.00
2019-02-08T11:54:31.653Z,40.00
2019-02-08T11:57:02.349Z,42.75
2019-02-08T11:59:36.414Z,42.30
2019-02-08T12:02:07.925Z,41.00
2019-02-08T12:04:38.768Z,40.88
2019-02-08T12:07:09.447Z,41.25
2019-02-08T12:09:40.108Z,41.15
2019-02-08T12:12:10.858Z,41.10
2019-02-08T12:17:51.506Z,42.43
2019-02-08T12:20:22.267Z,38.78
2019-02-08T12:22:52.959Z,36.10
2019-02-08T12:25:23.690Z,34.38
2019-02-08T12:27:54.456Z,33.23
2019-02-08T12:30:34.013Z,33.85
2019-02-08T12:33:05.336Z,36.95
2019-02-08T12:35:37.584Z,35.50
2019-02-08T12:38:08.358Z,31.23
2019-02-08T12:40:39.020Z,32.55
2019-02-08T12:43:09.810Z,30.50
2019-02-08T12:45:40.464Z,36.13
2019-02-08T12:48:11.156Z,37.13
2019-02-08T12:50:41.819Z,35.33
2019-02-08T12:53:13.836Z,34.23
2019-02-08T12:55:46.021Z,34.78
2019-02-08T12:58:17.775Z,35.92
2019-02-08T13:00:48.440Z,35.90
2019-02-08T13:03:19.956Z,36.17
2019-02-08T13:05:50.617Z,34.15
2019-02-08T13:08:21.307Z,38.60
2019-02-08T13:10:51.970Z,39.88
2019-02-08T13:13:23.128Z,40.17
2019-02-08T13:15:55.427Z,41.85
2019-02-08T13:18:26.156Z,43.13
2019-02-08T13:20:58.333Z,42.93
2019-02-08T13:23:29.199Z,41.50
2019-02-08T13:25:59.859Z,40.10
2019-02-08T13:28:34.093Z,43.45
2019-02-08T13:31:04.820Z,42.15
2019-02-08T13:33:35.587Z,42.60
2019-02-08T13:36:09.514Z,42.45
2019-02-08T13:38:40.283Z,40.78
2019-02-08T13:41:10.936Z,38.15
2019-02-08T13:43:41.623Z,37.25
2019-02-08T13:46:13.414Z,36.55
2019-02-08T13:48:44.202Z,38.38
2019-02-08T13:51:14.956Z,41.60
2019-02-08T13:53:45.819Z,39.65
2019-02-08T13:56:16.512Z,37.85
2019-02-08T13:58:47.351Z,34.25
2019-02-08T14:01:18.080Z,41.18
2019-02-08T14:03:49.656Z,41.63
2019-02-08T14:06:20.349Z,39.10
2019-02-08T14:08:51.021Z,37.40
2019-02-08T14:11:21.743Z,39.45
2019-02-08T14:13:52.493Z,40.28
2019-02-08T14:16:23.206Z,40.17
2019-02-08T14:18:53.956Z,40.70
2019-02-08T14:21:24.604Z,40.20
2019-02-08T14:23:55.270Z,38.13
2019-02-08T14:26:26.159Z,40.40
2019-02-08T14:28:56.837Z,44.30
2019-02-08T14:31:27.491Z,39.70
2019-02-08T14:33:58.227Z,38.80
2019-02-08T14:36:28.871Z,40.30
2019-02-08T14:38:59.620Z,41.45
2019-02-08T14:41:30.264Z,40.25
2019-02-08T14:44:00.946Z,38.48
2019-02-08T14:46:31.886Z,39.60
2019-02-08T14:49:02.621Z,43.40
2019-02-08T14:51:33.276Z,43.87
2019-02-08T14:54:05.880Z,40.98
2019-02-08T14:56:36.502Z,43.30
2019-02-08T14:59:07.218Z,44.70
2019-02-08T15:01:37.870Z,49.35
2019-02-08T15:04:08.938Z,51.92
2019-02-08T15:06:39.647Z,54.83
2019-02-08T15:09:10.326Z,53.55
2019-02-08T15:11:42.039Z,54.63
2019-02-08T15:14:12.717Z,55.92
2019-02-08T15:16:43.549Z,52.73
2019-02-08T15:19:14.243Z,51.58
2019-02-08T15:21:44.961Z,52.85
2019-02-08T15:24:15.639Z,53.80
2019-02-08T15:26:46.369Z,54.65
2019-02-08T15:29:17.134Z,55.63
2019-02-08T15:31:47.781Z,57.00
2019-02-08T15:34:18.480Z,56.15
2019-02-08T15:36:49.603Z,61.28
2019-02-08T15:39:21.361Z,63.70
2019-02-08T15:41:53.662Z,63.65
2019-02-08T15:44:24.344Z,65.15
2019-02-08T15:46:55.193Z,62.65
2019-02-08T15:49:26.151Z,57.85
2019-02-08T15:51:56.869Z,58.68
2019-02-08T15:54:28.136Z,62.13
2019-02-08T15:56:58.858Z,63.68
2019-02-08T15:59:30.726Z,71.55
2019-02-08T16:02:01.390Z,66.07
2019-02-08T16:04:32.910Z,68.15
2019-02-08T16:07:03.642Z,68.80
2019-02-08T16:09:34.337Z,71.95
2019-02-08T16:12:06.510Z,73.07
2019-02-08T16:14:37.191Z,78.62
2019-02-08T16:17:07.947Z,78.20
2019-02-08T16:19:38.702Z,82.22
2019-02-08T16:22:09.367Z,133.15
2019-02-08T16:24:40.108Z,248.20
2019-02-08T16:27:10.940Z,313.52
2019-02-08T16:29:41.644Z,352.32
2019-02-08T16:32:12.310Z,414.32
2019-02-08T16:34:43.146Z,384.15
2019-02-08T16:37:13.807Z,357.45
2019-02-08T16:39:44.573Z,430.83
2019-02-08T16:42:15.318Z,443.02
2019-02-08T16:44:47.447Z,339.55
2019-02-08T16:47:18.131Z,233.50
2019-02-08T16:49:48.899Z,181.70
2019-02-08T16:52:19.559Z,176.63
2019-02-08T16:54:50.249Z,212.42
2019-02-08T16:57:20.922Z,221.93
2019-02-08T17:00:00.814Z,226.92
2019-02-08T17:02:31.479Z,237.00
2019-02-08T17:05:02.818Z,235.95
2019-02-08T17:07:33.493Z,229.03
2019-02-08T17:10:07.485Z,228.73
2019-02-08T17:12:38.226Z,189.22
2019-02-08T17:15:12.185Z,182.95
2019-02-08T17:17:42.852Z,178.82
2019-02-08T17:20:29.287Z,168.00
2019-02-08T17:22:59.947Z,164.32
2019-02-08T17:25:30.665Z,176.82
2019-02-08T17:28:01.574Z,192.85
2019-02-08T17:30:32.254Z,199.40
2019-02-08T17:33:02.914Z,200.97
2019-02-08T17:35:33.606Z,197.32
2019-02-08T17:38:04.887Z,188.30
2019-02-08T17:40:42.809Z,219.93
2019-02-08T17:43:13.470Z,302.38
2019-02-08T17:45:44.161Z,352.13
2019-02-08T17:48:15.866Z,342.18
2019-02-08T17:50:46.557Z,291.45
2019-02-08T17:53:18.733Z,241.02
2019-02-08T17:55:50.943Z,194.93
2019-02-08T17:58:21.670Z,213.82
2019-02-08T18:00:55.098Z,176.97
2019-02-08T18:03:27.148Z,154.53
2019-02-08T18:05:58.712Z,141.80
2019-02-08T18:08:29.379Z,144.80
2019-02-08T18:11:00.076Z,149.12
2019-02-08T18:13:30.740Z,179.03
2019-02-08T18:16:01.502Z,134.40
2019-02-08T18:18:32.228Z,125.38
2019-02-08T18:21:03.013Z,137.07
2019-02-08T18:23:33.675Z,143.87
2019-02-08T18:26:04.361Z,146.13
2019-02-08T18:28:35.026Z,149.10
2019-02-08T18:31:06.835Z,144.05
2019-02-08T18:33:37.511Z,170.68
2019-02-08T18:36:08.279Z,203.45
2019-02-08T18:38:38.941Z,334.77
2019-02-08T18:41:09.631Z,269.25
2019-02-08T18:43:40.297Z,270.27
2019-02-08T18:46:11.088Z,269.98
2019-02-08T18:48:43.334Z,405.57
2019-02-08T18:51:14.030Z,645.85
2019-02-08T18:53:44.718Z,379.25
2019-02-08T18:56:15.415Z,282.10
2019-02-08T18:58:46.086Z,253.12
2019-02-08T19:01:18.435Z,183.12
2019-02-08T19:03:49.178Z,188.40
2019-02-08T19:06:20.879Z,228.02
2019-02-08T19:08:51.554Z,185.45
2019-02-08T19:11:22.247Z,134.75
2019-02-08T19:13:52.923Z,114.20
2019-02-08T19:16:23.684Z,173.70
2019-02-08T19:18:54.344Z,204.93
2019-02-08T19:21:25.034Z,402.97
2019-02-08T19:23:55.698Z,271.37
2019-02-08T19:26:26.394Z,128.65
2019-02-08T19:28:57.063Z,133.97
2019-02-08T19:31:27.830Z,124.27
2019-02-08T19:33:58.499Z,142.85
2019-02-08T19:36:29.210Z,133.97
2019-02-08T19:38:59.958Z,151.42
2019-02-08T19:41:30.650Z,129.30
2019-02-08T19:44:02.249Z,123.67
2019-02-08T19:46:32.945Z,126.87
2019-02-08T19:49:03.615Z,127.95
2019-02-08T19:51:34.315Z,126.95
2019-02-08T19:54:05.052Z,141.20
2019-02-08T19:56:35.737Z,133.32
2019-02-08T19:59:07.475Z,137.72
2019-02-08T20:01:39.685Z,120.17
2019-02-08T20:04:10.527Z,131.72
2019-02-08T20:06:41.798Z,143.80
2019-02-08T20:09:15.298Z,139.65
2019-02-08T20:11:46.000Z,141.43
2019-02-08T20:14:16.747Z,161.45
2019-02-08T20:16:47.571Z,155.90
2019-02-08T20:19:18.244Z,165.62
2019-02-08T20:21:48.941Z,156.18
2019-02-08T20:24:19.622Z,183.50
2019-02-08T20:26:53.365Z,178.62
2019-02-08T20:29:24.141Z,232.22
2019-02-08T20:31:54.954Z,186.05
2019-02-08T20:34:25.626Z,194.90
2019-02-08T20:36:56.403Z,182.70
2019-02-08T20:39:27.067Z,184.07
2019-02-08T20:41:58.889Z,171.70
2019-02-08T20:44:29.633Z,190.20
2019-02-08T20:47:00.406Z,196.40
2019-02-08T20:49:31.090Z,313.18
2019-02-08T20:52:01.789Z,331.65
2019-02-08T20:54:32.587Z,349.82
2019-02-08T20:57:03.294Z,281.75
2019-02-08T20:59:33.966Z,251.47
2019-02-08T21:02:04.669Z,239.82
2019-02-08T21:04:35.345Z,203.07
2019-02-08T21:07:06.790Z,256.05
2019-02-08T21:09:37.532Z,256.35
2019-02-08T21:12:08.234Z,286.25
2019-02-08T21:14:38.950Z,261.43
2019-02-08T21:17:09.717Z,262.32
2019-02-08T21:19:40.390Z,361.00
2019-02-08T21:22:11.091Z,407.10
2019-02-08T21:24:41.863Z,320.02
2019-02-08T21:27:12.568Z,278.65
2019-02-08T21:29:44.821Z,306.45
2019-02-08T21:32:15.630Z,304.50
2019-02-08T21:34:46.305Z,308.38
2019-02-08T21:37:17.011Z,301.90
2019-02-08T21:39:47.684Z,319.23
2019-02-08T21:42:18.385Z,283.27
2019-02-08T21:44:49.059Z,288.73
2019-02-08T21:47:19.759Z,265.18
2019-02-08T21:49:50.512Z,296.25
2019-02-08T21:52:21.213Z,321.90
2019-02-08T21:54:51.885Z,313.02
2019-02-08T21:57:22.812Z,296.50
2019-02-08T21:59:53.545Z,251.45
2019-02-08T22:02:24.260Z,264.12
2019-02-08T22:04:54.999Z,250.68
2019-02-08T22:07:27.423Z,266.80
2019-02-08T22:09:59.601Z,237.65
2019-02-08T22:12:31.817Z,222.25
2019-02-08T22:15:02.488Z,238.70
2019-02-08T22:17:33.351Z,239.30
2019-02-08T22:20:07.521Z,233.97
2019-02-08T22:22:38.294Z,225.95
2019-02-08T22:25:11.815Z,220.88
2019-02-08T22:27:42.857Z,210.95
2019-02-08T22:30:15.871Z,232.50
2019-02-08T22:32:46.634Z,254.57
2019-02-08T22:35:18.216Z,220.70
2019-02-08T22:37:49.089Z,207.70
2019-02-08T22:40:21.298Z,234.50
2019-02-08T22:42:52.172Z,213.82
2019-02-08T22:45:37.298Z,237.23
2019-02-08T22:48:08.086Z,221.40
2019-02-08T22:50:38.830Z,241.33
2019-02-08T22:53:09.610Z,228.32
2019-02-08T22:55:40.355Z,227.50
2019-02-08T22:58:11.141Z,229.45
2019-02-08T23:00:54.505Z,228.60
2019-02-08T23:03:25.358Z,255.15
2019-02-08T23:05:56.026Z,271.07
2019-02-08T23:08:27.921Z,269.60
2019-02-08T23:10:58.586Z,263.15
2019-02-08T23:13:29.293Z,258.47
2019-02-08T23:15:59.967Z,259.05
2019-02-08T23:18:30.670Z,253.92
2019-02-08T23:21:01.337Z,245.67
2019-02-08T23:23:33.078Z,214.72
2019-02-08T23:26:03.919Z,198.43
2019-02-08T23:28:34.613Z,184.82
2019-02-08T23:31:05.288Z,190.28
2019-02-08T23:33:36.064Z,184.35
2019-02-08T23:36:06.742Z,196.60
2019-02-08T23:38:37.506Z,186.90
2019-02-08T23:41:08.218Z,181.85
2019-02-08T23:43:38.915Z,199.82
2019-02-08T23:46:09.590Z,197.72
2019-02-08T23:48:40.286Z,191.30
2019-02-08T23:51:10.962Z,195.33
2019-02-08T23:53:41.664Z,189.62
2019-02-08T23:56:12.333Z,201.60
2019-02-08T23:58:43.045Z,211.55
